ADDS METAR Data INFO
IDs: Format: Raw Decoded Include TAF

Data at: 0632 UTC 15 Dec 2017

KSAA 150615Z AUTO 16010G16KT 10SM CLR M07/M12 A3026 RMK AO2
KSAA 150555Z AUTO 17010G16KT 10SM CLR M07/M12 A3027 RMK AO2
KSAA 150535Z AUTO 17013G19KT 10SM CLR M08/M12 A3026 RMK AO2
KSAA 150515Z AUTO 15010KT 10SM CLR M09/M12 A3027 RMK AO2
KSAA 150455Z AUTO 16011G15KT 10SM CLR M08/M11 A3027 RMK AO2
KSAA 150435Z AUTO 17010G15KT 10SM CLR M08/M11 A3028 RMK AO2
KSAA 150415Z AUTO 17010G14KT 10SM CLR M11/M13 A3028 RMK AO2
KSAA 150355Z AUTO 12004KT 10SM CLR M11/M13 A3029 RMK AO2
KSAA 150335Z AUTO 17003KT 10SM CLR M11/M13 A3029 RMK AO2
KSAA 150315Z AUTO 15006KT 10SM CLR M11/M13 A3028 RMK AO2
KSAA 150255Z AUTO 19012G17KT 10SM CLR M11/M12 A3029 RMK AO2
KSAA 150235Z AUTO 19008KT 10SM CLR M12/M13 A3030 RMK AO2
KSAA 150215Z AUTO 17008KT 10SM CLR M12/M12 A3030 RMK AO2
KSAA 150155Z AUTO 18009KT 10SM CLR M12/M13 A3030 RMK AO2
KSAA 150135Z AUTO 18006KT 10SM CLR M12/M13 A3029 RMK AO2
KSAA 150115Z AUTO 17009KT 122V192 10SM CLR M11/M13 A3029 RMK AO2
KSAA 150055Z AUTO 15004KT 10SM CLR M10/M12 A3029 RMK AO2
KSAA 150035Z AUTO 24006KT 10SM CLR M08/M11 A3028 RMK AO2
KSAA 150015Z AUTO 23009KT 10SM CLR M08/M11 A3029 RMK AO2
KSAA 142355Z AUTO 25008KT 10SM CLR M08/M11 A3030 RMK AO2
KSAA 142335Z AUTO 23007KT 10SM CLR M08/M11 A3029 RMK AO2
KSAA 142315Z AUTO 28005KT 10SM CLR M06/M09 A3029 RMK AO2
KSAA 142255Z AUTO 26004KT 10SM CLR M05/M08 A3029 RMK AO2
KSAA 142235Z AUTO 26006KT 10SM CLR M04/M08 A3028 RMK AO2
KSAA 142215Z AUTO 28006KT 10SM SCT034 M03/M07 A3029 RMK AO2
KSAA 142155Z AUTO 27006KT 10SM SCT032 M02/M07 A3029 RMK AO2
KSAA 142135Z AUTO 27006KT 10SM SCT032 BKN038 M03/M07 A3028 RMK AO2
KSAA 142115Z AUTO 28010KT 10SM BKN030 BKN036 M02/M06 A3029 RMK AO2
KSAA 142055Z AUTO 29007KT 10SM BKN033 BKN041 M02/M06 A3029 RMK AO2
KSAA 142035Z AUTO 28007KT 10SM BKN034 BKN042 M02/M06 A3029 RMK AO2
KSAA 142015Z AUTO 29007KT 10SM SCT032 M02/M06 A3029 RMK AO2
KSAA 141955Z AUTO 30012G15KT 10SM SCT038 M02/M07 A3029 RMK AO2
KSAA 141935Z AUTO 30006KT 10SM BKN040 M03/M07 A3029 RMK AO2
KSAA 141915Z AUTO 29008KT 10SM OVC040 M02/M06 A3029 RMK AO2
KSAA 141855Z AUTO 30007G14KT 10SM OVC040 M02/M06 A3029 RMK AO2
KSAA 141835Z AUTO 30007G14KT 10SM BKN040 M02/M06 A3030 RMK AO2
KSAA 141815Z AUTO 30007KT 10SM BKN043 M02/M06 A3030 RMK AO2
KSAA 141735Z AUTO 29008KT 10SM BKN043 M03/M07 A3030 RMK AO2
KSAA 141715Z AUTO 28007KT 10SM SCT047 M04/M07 A3030 RMK AO2
KSAA 141655Z AUTO 29008KT 10SM OVC047 M04/M07 A3030 RMK AO2
KSAA 141635Z AUTO 29007KT 10SM OVC047 M04/M07 A3029 RMK AO2
KSAA 141615Z AUTO 29007KT 10SM SCT030 SCT041 OVC047 M04/M07 A3029 RMK AO2
KSAA 141555Z AUTO 29010KT 10SM SCT030 SCT036 OVC047 M04/M06 A3028 RMK AO2
KSAA 141535Z AUTO 27006KT 10SM BKN045 M06/M06 A3027 RMK AO2
KSAA 141515Z AUTO 26008KT 10SM SCT043 M08/M08 A3027 RMK AO2
KSAA 141455Z AUTO 27007KT 10SM BKN038 BKN044 M06/M07 A3027 RMK AO2
KSAA 141435Z AUTO 26007KT 10SM BKN037 OVC044 M06/M06 A3026 RMK AO2
KSAA 141415Z AUTO 25006KT 10SM SCT036 OVC043 M06/M06 A3025 RMK AO2
KSAA 141355Z AUTO 28007KT 10SM OVC036 M06/M06 A3025 RMK AO2
KSAA 141335Z AUTO 29011KT 10SM BKN040 BKN050 M06/M06 A3025 RMK AO2
KSAA 141315Z AUTO 28006KT 10SM SCT037 OVC050 M05/M05 A3024 RMK AO2
KSAA 141255Z AUTO 29010KT 10SM SCT024 BKN031 OVC050 M05/M05 A3024 RMK AO2
KSAA 141235Z AUTO 31008KT 10SM SCT014 BKN022 OVC029 M04/M04 A3023 RMK AO2
KSAA 141215Z AUTO 30007KT 10SM SCT009 OVC013 M04/M04 A3023 RMK AO2
KSAA 141155Z AUTO 32006KT 10SM BKN009 BKN012 OVC019 M04/M04 A3021 RMK AO2
KSAA 141135Z AUTO 28010KT 10SM SCT007 SCT012 OVC019 M04/M04 A3021 RMK AO2
KSAA 141115Z AUTO 32007KT 10SM SCT007 BKN013 OVC019 M03/M03 A3021 RMK AO2
KSAA 141055Z AUTO 31008KT 10SM OVC023 M04/M04 A3020 RMK AO2
KSAA 141035Z AUTO 31005KT 10SM OVC025 M04/M04 A3020 RMK AO2
KSAA 141010Z AUTO 31006KT 10SM OVC028 M04/M04 A3020 RMK AO2
KSAA 140955Z AUTO 28010KT 10SM OVC026 M04/M04 A3019 RMK AO2
KSAA 140930Z AUTO 28010KT 5SM -SN SCT012 OVC022 M04/M04 A3019 RMK AO2
KSAA 140915Z AUTO 29011KT 3SM -SN BKN012 BKN019 OVC028 M04/M04 A3019 RMK AO2
KSAA 140855Z AUTO 33006KT 10SM SCT021 BKN029 OVC070 M03/M04 A3019 RMK AO2
KSAA 140835Z AUTO 32007KT 10SM SCT035 SCT049 BKN070 M04/M04 A3019 RMK AO2
KSAA 140815Z AUTO 33005KT 10SM SCT026 SCT043 SCT060 M03/M04 A3018 RMK AO2
KSAA 140755Z AUTO 02007KT 7SM -SN SCT020 BKN029 OVC060 M03/M05 A3018 RMK AO2
KSAA 140735Z AUTO 36007KT 7SM -SN SCT018 OVC050 M03/M04 A3018 RMK AO2
KSAA 140715Z AUTO 01012G16KT 10SM BKN048 BKN060 M03/M03 A3018 RMK AO2
KSAA 140655Z AUTO 36010G16KT 10SM SCT025 SCT033 BKN050 M03/M04 A3017 RMK AO2
KSAA 140635Z AUTO 35011KT 10SM SCT022 BKN027 OVC110 M02/M03 A3016 RMK AO2
KSAA 140615Z AUTO 36009G17KT 7SM SCT016 SCT022 OVC110 M03/M03 A3016 RMK AO2
KSAA 140555Z AUTO 35010G16KT 2 1/2SM -SN SCT006 BKN011 OVC016 M02/M02 A3016 RMK AO2
KSAA 140535Z AUTO 33010G17KT 2SM -SN OVC010 M02/M02 A3015 RMK AO2
KSAA 140515Z AUTO 33009G16KT 2 1/2SM -SN SCT005 BKN010 OVC022 M02/M02 A3015 RMK AO2
KSAA 140455Z AUTO 33009G15KT 3SM -SN SCT005 BKN010 OVC017 M02/M02 A3015 RMK AO2
KSAA 140435Z AUTO 33009KT 2 1/2SM -SN SCT008 OVC016 M02/M02 A3014 RMK AO2
KSAA 140415Z AUTO 36010G16KT 2SM -SN OVC004 M02/M02 A3013 RMK AO2
KSAA 140355Z AUTO 34007KT 2SM -SN OVC004 M02/M02 A3013 RMK AO2
KSAA 140335Z AUTO 32005KT 3/4SM SN BKN006 OVC012 M02/M02 A3012 RMK AO2
KSAA 140315Z AUTO 33004KT 1SM SN BKN006 OVC016 M02/M02 A3012 RMK AO2
KSAA 140255Z AUTO 33005KT 1SM SN OVC006 M02/M02 A3012 RMK AO2
KSAA 140235Z AUTO 33004KT 1SM SN OVC006 M02/M02 A3011 RMK AO2
KSAA 140210Z AUTO 00000KT 2SM -SN SCT008 OVC019 M02/M02 A3011 RMK AO2
KSAA 140155Z AUTO 00000KT 2SM -SN BKN005 BKN015 OVC021 M02/M02 A3011 RMK AO2
KSAA 140135Z AUTO 1SM SN OVC005 M02/M02 A3011 RMK AO2
KSAA 140115Z AUTO 32003KT 3/4SM SN OVC003 M01/M01 A3012 RMK AO2
KSAA 140055Z AUTO 31011G14KT 1 1/2SM -SN BKN005 OVC010 M01/M01 A3012 RMK AO2
KSAA 140035Z AUTO 33010G16KT 292V352 1 3/4SM -SN BKN007 OVC019 M01/M01 A3012 RMK AO2
KSAA 140015Z AUTO 29015G25KT 7SM SCT017 BKN045 OVC060 01/M05 A3011 RMK AO2
KSAA 132355Z AUTO 33006KT 292V352 10SM SCT049 BKN060 OVC080 01/M07 A3009 RMK AO2
KSAA 132335Z AUTO 33007KT 10SM BKN070 OVC090 01/M08 A3009 RMK AO2
KSAA 132315Z AUTO 30007KT 10SM OVC075 02/M08 A3008 RMK AO2
KSAA 132255Z AUTO 30006KT 10SM OVC085 02/M08 A3008 RMK AO2
KSAA 132235Z AUTO 31005KT 10SM OVC085 02/M08 A3007 RMK AO2
KSAA 132215Z AUTO 31006KT 10SM OVC085 03/M09 A3006 RMK AO2
KSAA 132155Z AUTO 32003KT 10SM OVC085 04/M10 A3006 RMK AO2
KSAA 132135Z AUTO 00000KT 10SM OVC085 04/M11 A3008 RMK AO2
KSAA 132115Z AUTO 00000KT 10SM OVC085 05/M11 A3008 RMK AO2
KSAA 132055Z AUTO 00000KT 10SM OVC075 05/M12 A3008 RMK AO2
KSAA 132035Z AUTO 00000KT 10SM OVC075 05/M12 A3009 RMK AO2
KSAA 132015Z AUTO 32004KT 10SM OVC075 05/M12 A3010 RMK AO2
KSAA 131955Z AUTO 33003KT 10SM OVC075 05/M12 A3010 RMK AO2
KSAA 131935Z AUTO 00000KT 10SM BKN075 05/M13 A3011 RMK AO2
KSAA 131915Z AUTO 00000KT 10SM CLR 04/M12 A3013 RMK AO2
KSAA 131855Z AUTO 09005KT 10SM CLR 05/M12 A3014 RMK AO2
KSAA 131835Z AUTO 20006KT 10SM CLR 03/M11 A3016 RMK AO2